Time;durP1;ratioP1;P1;durP2;ratioP2;P2;SDS_P1;SDS_P2;PMS_P1;PMS_P2;Temp;Humidity;BMP_temperature;BMP_pressure;BME280_temperature;BME280_humidity;BME280_pressure;Samples;Min_cycle;Max_cycle;Signal;HPM_P1;HPM_P2
2023/03/18 00:02:58;;;;;;;13.53;7.43;;;;;;;;;;6236668;28;20304;-72
2023/03/18 00:06:05;;;;;;;14.67;7.23;;;;;;;;;;6237081;28;20298;-73
2023/03/18 00:09:12;;;;;;;13.73;7.37;;;;;;;;;;6237762;28;20311;-72
2023/03/18 00:12:17;;;;;;;18.60;8.47;;;;;;;;;;6237351;28;20295;-72
2023/03/18 00:15:23;;;;;;;16.20;7.57;;;;;;;;;;6235825;28;20299;-71
2023/03/18 00:18:29;;;;;;;15.20;7.93;;;;;;;;;;6235848;28;20308;-71
2023/03/18 00:21:34;;;;;;;19.40;8.17;;;;;;;;;;6236580;28;20355;-72
2023/03/18 00:24:40;;;;;;;15.77;8.30;;;;;;;;;;6235353;28;20291;-71
2023/03/18 00:27:45;;;;;;;22.23;7.83;;;;;;;;;;6236311;28;20298;-72
2023/03/18 00:30:51;;;;;;;17.60;7.63;;;;;;;;;;6235401;28;20291;-73
2023/03/18 00:33:57;;;;;;;22.73;8.13;;;;;;;;;;6234052;28;20308;-71
2023/03/18 00:37:02;;;;;;;17.53;8.10;;;;;;;;;;6234908;28;20295;-72
2023/03/18 00:40:15;;;;;;;17.07;8.87;;;;;;;;;;6235704;28;20528;-73
2023/03/18 00:43:28;;;;;;;25.27;9.13;;;;;;;;;;6235757;28;20294;-72
2023/03/18 00:46:36;;;;;;;18.57;8.30;;;;;;;;;;6235308;28;20503;-72
2023/03/18 00:49:43;;;;;;;18.83;8.83;;;;;;;;;;6235898;28;20299;-72
2023/03/18 00:52:48;;;;;;;12.33;8.13;;;;;;;;;;6235514;28;20297;-72
2023/03/18 00:55:54;;;;;;;19.23;8.73;;;;;;;;;;6234317;28;20288;-71
2023/03/18 00:58:59;;;;;;;18.30;8.80;;;;;;;;;;6235093;28;20284;-72
2023/03/18 01:02:06;;;;;;;22.90;8.80;;;;;;;;;;6234271;28;20559;-72
2023/03/18 01:05:13;;;;;;;15.77;8.13;;;;;;;;;;6234996;28;20299;-71
2023/03/18 01:08:18;;;;;;;21.13;9.37;;;;;;;;;;6235156;28;20311;-73
2023/03/18 01:11:24;;;;;;;18.70;8.87;;;;;;;;;;6235097;28;20295;-71
2023/03/18 01:14:29;;;;;;;19.43;8.50;;;;;;;;;;6233647;28;20292;-72
2023/03/18 01:17:36;;;;;;;19.10;8.80;;;;;;;;;;6233549;28;20311;-72
2023/03/18 01:20:41;;;;;;;20.50;8.87;;;;;;;;;;6235025;28;20441;-72
2023/03/18 01:23:47;;;;;;;18.13;9.00;;;;;;;;;;6233192;28;20299;-72
2023/03/18 01:26:52;;;;;;;17.20;9.20;;;;;;;;;;6233350;28;20381;-72
2023/03/18 01:29:58;;;;;;;15.83;8.60;;;;;;;;;;6233791;28;20302;-72
2023/03/18 01:33:07;;;;;;;19.83;8.63;;;;;;;;;;6233385;28;20434;-71
2023/03/18 01:36:14;;;;;;;20.50;8.90;;;;;;;;;;6233058;28;20572;-71
2023/03/18 01:39:22;;;;;;;14.60;8.57;;;;;;;;;;6233165;28;20299;-71
2023/03/18 01:42:27;;;;;;;21.87;8.73;;;;;;;;;;6234010;28;20603;-72
2023/03/18 01:45:34;;;;;;;19.37;8.73;;;;;;;;;;6233106;28;20307;-71
2023/03/18 01:48:41;;;;;;;21.20;9.03;;;;;;;;;;6232689;28;20313;-72
2023/03/18 01:51:50;;;;;;;21.20;8.67;;;;;;;;;;6233735;28;20305;-72
2023/03/18 01:54:59;;;;;;;17.80;8.93;;;;;;;;;;6233078;28;20515;-72
2023/03/18 01:58:13;;;;;;;17.80;9.43;;;;;;;;;;6233158;28;20310;-73
2023/03/18 02:01:22;;;;;;;19.67;8.93;;;;;;;;;;6233358;28;20348;-72
2023/03/18 02:04:43;;;;;;;18.50;8.87;;;;;;;;;;6112216;28;20296;-76
2023/03/18 02:07:50;;;;;;;15.97;8.63;;;;;;;;;;6147009;28;20302;-74
2023/03/18 02:10:56;;;;;;;21.60;9.20;;;;;;;;;;6148190;29;20303;-76
2023/03/18 02:14:01;;;;;;;20.00;8.83;;;;;;;;;;6114133;28;20302;-75
2023/03/18 02:17:10;;;;;;;23.53;9.07;;;;;;;;;;6145689;28;20307;-76
2023/03/18 02:20:34;;;;;;;16.63;8.93;;;;;;;;;;6145727;28;20307;-76
2023/03/18 02:23:48;;;;;;;20.40;9.27;;;;;;;;;;6145169;28;20322;-74
2023/03/18 02:26:57;;;;;;;22.53;9.30;;;;;;;;;;6114253;29;20310;-75
2023/03/18 02:30:15;;;;;;;16.27;9.27;;;;;;;;;;6113435;28;20634;-75
2023/03/18 02:33:24;;;;;;;21.33;9.47;;;;;;;;;;6113701;28;20297;-75
2023/03/18 02:36:30;;;;;;;14.97;9.53;;;;;;;;;;6114533;29;20306;-75
2023/03/18 02:39:38;;;;;;;18.63;9.60;;;;;;;;;;6145261;28;20306;-76
2023/03/18 02:42:43;;;;;;;26.50;10.43;;;;;;;;;;6113933;28;20303;-75
2023/03/18 02:46:08;;;;;;;17.20;9.50;;;;;;;;;;6145751;28;20309;-76
2023/03/18 02:49:14;;;;;;;21.73;9.80;;;;;;;;;;6117310;28;20484;-75
2023/03/18 02:52:19;;;;;;;21.97;9.73;;;;;;;;;;6118924;29;20299;-74
2023/03/18 02:55:26;;;;;;;26.77;10.33;;;;;;;;;;6149674;28;20312;-74
2023/03/18 02:58:31;;;;;;;24.50;10.37;;;;;;;;;;6117582;28;20303;-76
2023/03/18 03:01:41;;;;;;;24.77;11.43;;;;;;;;;;6117755;29;20273;-74
2023/03/18 03:04:48;;;;;;;27.63;11.00;;;;;;;;;;6141185;28;20476;-75
2023/03/18 03:07:55;;;;;;;23.67;10.90;;;;;;;;;;6172672;28;20296;-76
2023/03/18 03:11:00;;;;;;;22.53;11.00;;;;;;;;;;6145730;28;20288;-75
2023/03/18 03:14:08;;;;;;;29.57;11.23;;;;;;;;;;6164154;28;20297;-76
2023/03/18 03:17:16;;;;;;;20.50;10.57;;;;;;;;;;6165811;28;20300;-76
2023/03/18 03:20:22;;;;;;;24.90;11.97;;;;;;;;;;6164596;28;20309;-74
2023/03/18 03:23:28;;;;;;;22.93;11.20;;;;;;;;;;6166526;28;20307;-75
2023/03/18 03:26:34;;;;;;;23.90;11.90;;;;;;;;;;6166291;28;20295;-77
2023/03/18 03:29:39;;;;;;;24.50;11.13;;;;;;;;;;6165993;28;20472;-76
2023/03/18 03:32:47;;;;;;;22.93;11.63;;;;;;;;;;6165958;28;20291;-75
2023/03/18 03:35:53;;;;;;;29.10;11.30;;;;;;;;;;6165280;28;20314;-77
2023/03/18 03:38:59;;;;;;;27.13;11.67;;;;;;;;;;6165179;28;20314;-75
2023/03/18 03:42:05;;;;;;;20.60;10.60;;;;;;;;;;6166508;28;20403;-75
2023/03/18 03:45:11;;;;;;;28.10;11.60;;;;;;;;;;6167749;28;20302;-75
2023/03/18 03:48:17;;;;;;;21.63;11.07;;;;;;;;;;6164869;28;20312;-76
2023/03/18 03:51:22;;;;;;;19.30;11.20;;;;;;;;;;6164623;28;20298;-76
2023/03/18 03:54:28;;;;;;;23.07;11.07;;;;;;;;;;6163809;28;20298;-74
2023/03/18 03:57:35;;;;;;;24.57;10.50;;;;;;;;;;6165174;28;20485;-75
2023/03/18 04:00:41;;;;;;;29.27;11.80;;;;;;;;;;6164347;28;20693;-74
2023/03/18 04:03:48;;;;;;;20.80;11.00;;;;;;;;;;6193052;28;20605;-74
2023/03/18 04:06:54;;;;;;;25.80;10.73;;;;;;;;;;6196155;28;20301;-75
2023/03/18 04:10:00;;;;;;;23.50;11.50;;;;;;;;;;6165111;28;20329;-75
2023/03/18 04:13:07;;;;;;;21.20;11.60;;;;;;;;;;6163451;28;20589;-75
2023/03/18 04:16:15;;;;;;;22.20;11.70;;;;;;;;;;6165339;28;20312;-75
2023/03/18 04:19:22;;;;;;;24.77;11.80;;;;;;;;;;6164907;28;20301;-75
2023/03/18 04:22:28;;;;;;;24.97;12.10;;;;;;;;;;6163812;28;20311;-75
2023/03/18 04:25:34;;;;;;;23.77;11.73;;;;;;;;;;6164749;28;20276;-75
2023/03/18 04:28:40;;;;;;;21.50;11.37;;;;;;;;;;6163425;28;20300;-75
2023/03/18 04:31:48;;;;;;;22.63;12.00;;;;;;;;;;6196166;28;20268;-74
2023/03/18 04:34:54;;;;;;;24.77;11.67;;;;;;;;;;6165028;28;20476;-75
2023/03/18 04:38:00;;;;;;;24.30;12.23;;;;;;;;;;6164632;28;20294;-75
2023/03/18 04:41:06;;;;;;;21.73;11.67;;;;;;;;;;6163772;28;20301;-76
2023/03/18 04:44:14;;;;;;;22.43;12.40;;;;;;;;;;6162623;28;20301;-74
2023/03/18 04:47:26;;;;;;;24.33;11.87;;;;;;;;;;6163047;28;20313;-76
2023/03/18 04:50:34;;;;;;;23.10;12.10;;;;;;;;;;6163605;28;20300;-75
2023/03/18 04:53:41;;;;;;;26.63;12.13;;;;;;;;;;6162856;28;20314;-75
2023/03/18 04:56:47;;;;;;;27.13;12.27;;;;;;;;;;6163509;28;20297;-74
2023/03/18 04:59:53;;;;;;;25.47;11.80;;;;;;;;;;6163133;28;20579;-74
2023/03/18 05:03:00;;;;;;;22.23;12.20;;;;;;;;;;6162742;28;20297;-73
2023/03/18 05:06:08;;;;;;;26.90;12.43;;;;;;;;;;6163458;28;20320;-75
2023/03/18 05:09:28;;;;;;;19.83;11.47;;;;;;;;;;6162140;28;20307;-75
2023/03/18 05:12:33;;;;;;;23.93;11.93;;;;;;;;;;6166435;28;20288;-75
2023/03/18 05:15:39;;;;;;;28.40;12.30;;;;;;;;;;6164221;28;20296;-76
2023/03/18 05:18:45;;;;;;;23.57;12.17;;;;;;;;;;6162030;28;20308;-76
2023/03/18 05:21:52;;;;;;;25.73;12.03;;;;;;;;;;6162447;28;20485;-74
2023/03/18 05:24:58;;;;;;;22.90;12.17;;;;;;;;;;6162229;28;20296;-75
2023/03/18 05:28:05;;;;;;;23.57;11.60;;;;;;;;;;6161682;28;20263;-76
2023/03/18 05:31:21;;;;;;;24.70;12.27;;;;;;;;;;6162638;28;20296;-74
2023/03/18 05:34:27;;;;;;;24.77;11.93;;;;;;;;;;6163292;28;20567;-74
2023/03/18 05:37:34;;;;;;;22.83;12.63;;;;;;;;;;6161716;28;20495;-76
2023/03/18 05:40:43;;;;;;;22.53;12.23;;;;;;;;;;6161037;28;20568;-74
2023/03/18 05:43:55;;;;;;;30.00;12.37;;;;;;;;;;6161385;28;20297;-75
2023/03/18 05:47:02;;;;;;;29.60;13.73;;;;;;;;;;6161935;28;20295;-75
2023/03/18 05:50:22;;;;;;;29.23;12.80;;;;;;;;;;6161051;28;20296;-76
2023/03/18 05:53:29;;;;;;;28.47;13.27;;;;;;;;;;6161703;28;20296;-75
2023/03/18 05:56:45;;;;;;;26.03;12.97;;;;;;;;;;6161608;28;20294;-74
2023/03/18 05:59:51;;;;;;;25.20;13.30;;;;;;;;;;6160728;28;20300;-75
2023/03/18 06:02:58;;;;;;;29.43;12.83;;;;;;;;;;6160744;28;20545;-76
2023/03/18 06:06:03;;;;;;;28.70;12.90;;;;;;;;;;6161561;28;20313;-76
2023/03/18 06:09:12;;;;;;;27.40;12.83;;;;;;;;;;6161175;28;20561;-75
2023/03/18 06:12:22;;;;;;;28.10;13.17;;;;;;;;;;6161165;28;20300;-75
2023/03/18 06:15:28;;;;;;;23.50;11.43;;;;;;;;;;6193392;28;20603;-75
2023/03/18 06:18:35;;;;;;;25.67;12.27;;;;;;;;;;6160977;28;20469;-75
2023/03/18 06:21:40;;;;;;;31.97;12.80;;;;;;;;;;6162917;28;20347;-77
2023/03/18 06:24:46;;;;;;;29.30;11.50;;;;;;;;;;6161912;28;20303;-75
2023/03/18 06:27:54;;;;;;;24.73;12.00;;;;;;;;;;6195491;28;20292;-74
2023/03/18 06:31:04;;;;;;;28.10;11.77;;;;;;;;;;6161299;29;20304;-75
2023/03/18 06:34:11;;;;;;;27.67;12.73;;;;;;;;;;6162799;28;20304;-76
2023/03/18 06:37:17;;;;;;;22.27;12.67;;;;;;;;;;6193294;28;20299;-76
2023/03/18 06:40:24;;;;;;;23.60;12.50;;;;;;;;;;6161804;28;20503;-74
2023/03/18 06:43:32;;;;;;;25.00;12.73;;;;;;;;;;6161112;29;20305;-74
2023/03/18 06:46:38;;;;;;;27.30;11.50;;;;;;;;;;6161058;28;20273;-75
2023/03/18 06:49:45;;;;;;;28.87;12.90;;;;;;;;;;6161807;28;20302;-76
2023/03/18 06:52:55;;;;;;;26.13;13.03;;;;;;;;;;6193722;28;20300;-74
2023/03/18 06:56:08;;;;;;;28.60;12.53;;;;;;;;;;6194036;28;20299;-76
2023/03/18 06:59:27;;;;;;;27.07;12.87;;;;;;;;;;6192935;28;20305;-74
2023/03/18 07:02:33;;;;;;;26.40;12.63;;;;;;;;;;6160195;28;20500;-77
2023/03/18 07:05:38;;;;;;;26.00;13.37;;;;;;;;;;6163209;28;20453;-75
2023/03/18 07:08:43;;;;;;;33.23;12.93;;;;;;;;;;6160066;29;20592;-76
2023/03/18 07:11:50;;;;;;;28.17;12.60;;;;;;;;;;6193904;28;20299;-75
2023/03/18 07:14:58;;;;;;;27.00;12.43;;;;;;;;;;6160260;28;20542;-76
2023/03/18 07:18:03;;;;;;;31.07;13.20;;;;;;;;;;6192155;28;20295;-75
2023/03/18 07:21:10;;;;;;;27.67;12.53;;;;;;;;;;6161090;28;20321;-75
2023/03/18 07:24:16;;;;;;;31.87;13.07;;;;;;;;;;6192472;28;20305;-75
2023/03/18 07:27:22;;;;;;;21.27;11.67;;;;;;;;;;6192441;28;20304;-75
2023/03/18 07:30:29;;;;;;;23.67;11.27;;;;;;;;;;6192729;28;20303;-75
2023/03/18 07:33:34;;;;;;;27.23;12.33;;;;;;;;;;6162996;28;20324;-75
2023/03/18 07:36:39;;;;;;;25.47;13.10;;;;;;;;;;6196995;28;20302;-77
2023/03/18 07:39:44;;;;;;;26.97;12.57;;;;;;;;;;6165648;28;20314;-74
2023/03/18 07:42:52;;;;;;;27.63;12.83;;;;;;;;;;6165425;28;20580;-75
2023/03/18 07:45:58;;;;;;;24.17;12.23;;;;;;;;;;6164573;28;20312;-75
2023/03/18 07:49:03;;;;;;;24.73;12.30;;;;;;;;;;6165374;28;20300;-74
2023/03/18 07:52:09;;;;;;;27.03;12.60;;;;;;;;;;6166234;28;20354;-75
2023/03/18 07:55:15;;;;;;;26.03;12.03;;;;;;;;;;6165856;28;20301;-75
2023/03/18 07:58:21;;;;;;;20.10;11.60;;;;;;;;;;6165732;28;20296;-75
2023/03/18 08:01:27;;;;;;;29.93;12.23;;;;;;;;;;6165818;28;20623;-74
2023/03/18 08:04:32;;;;;;;28.63;12.07;;;;;;;;;;6158923;28;20306;-73
2023/03/18 08:07:38;;;;;;;24.47;11.90;;;;;;;;;;6165254;28;20302;-74
2023/03/18 08:10:43;;;;;;;19.17;11.77;;;;;;;;;;6165809;28;20533;-73
2023/03/18 08:13:50;;;;;;;22.00;11.80;;;;;;;;;;6168360;28;20583;-75
2023/03/18 08:16:55;;;;;;;24.97;11.80;;;;;;;;;;6166152;28;20309;-75
2023/03/18 08:20:00;;;;;;;24.63;11.63;;;;;;;;;;6164968;28;20305;-75
2023/03/18 08:23:05;;;;;;;26.13;11.57;;;;;;;;;;6164599;28;20321;-75
2023/03/18 08:26:11;;;;;;;22.57;12.30;;;;;;;;;;6164953;28;20338;-75
2023/03/18 08:29:17;;;;;;;31.43;12.10;;;;;;;;;;6164774;28;20292;-75
2023/03/18 08:32:22;;;;;;;28.23;12.17;;;;;;;;;;6165905;28;20301;-75
2023/03/18 08:35:27;;;;;;;25.87;11.97;;;;;;;;;;6165136;28;20476;-75
2023/03/18 08:38:33;;;;;;;25.60;11.87;;;;;;;;;;6159771;28;20293;-74
2023/03/18 08:41:38;;;;;;;23.93;11.87;;;;;;;;;;6165016;28;20302;-75
2023/03/18 08:44:45;;;;;;;22.10;11.50;;;;;;;;;;6164487;28;20580;-76
2023/03/18 08:47:50;;;;;;;27.10;12.07;;;;;;;;;;6164116;28;20380;-76
2023/03/18 08:50:55;;;;;;;32.77;12.90;;;;;;;;;;6164520;28;20305;-74
2023/03/18 08:54:00;;;;;;;23.60;12.47;;;;;;;;;;6164333;28;20301;-75
2023/03/18 08:57:06;;;;;;;24.07;12.33;;;;;;;;;;6163805;28;20315;-74
2023/03/18 09:00:16;;;;;;;21.73;11.77;;;;;;;;;;6180644;28;20308;-74
2023/03/18 09:03:23;;;;;;;23.57;11.80;;;;;;;;;;6164267;28;20304;-76
2023/03/18 09:06:29;;;;;;;26.40;12.77;;;;;;;;;;6164027;28;20367;-75
2023/03/18 09:09:35;;;;;;;27.33;12.53;;;;;;;;;;6164161;28;20314;-76
2023/03/18 09:12:48;;;;;;;20.27;11.33;;;;;;;;;;6163519;28;20316;-74
2023/03/18 09:15:55;;;;;;;30.10;13.60;;;;;;;;;;6163617;28;20301;-75
2023/03/18 09:19:00;;;;;;;26.10;12.33;;;;;;;;;;6163867;28;20487;-75
2023/03/18 09:22:05;;;;;;;22.03;12.57;;;;;;;;;;6164157;28;20549;-74
2023/03/18 09:25:11;;;;;;;27.97;12.93;;;;;;;;;;6163780;28;20372;-75
2023/03/18 09:28:16;;;;;;;25.63;12.43;;;;;;;;;;6164198;28;20304;-75
2023/03/18 09:31:23;;;;;;;22.60;12.60;;;;;;;;;;6164484;28;20302;-75
2023/03/18 09:34:28;;;;;;;29.17;12.80;;;;;;;;;;6163893;28;20298;-73
2023/03/18 09:37:33;;;;;;;30.70;13.63;;;;;;;;;;6163217;28;20281;-75
2023/03/18 09:40:50;;;;;;;24.73;12.87;;;;;;;;;;6163449;28;20280;-75
2023/03/18 09:44:01;;;;;;;25.20;12.37;;;;;;;;;;6163514;28;20304;-75
2023/03/18 09:47:21;;;;;;;22.93;12.93;;;;;;;;;;6163744;28;20306;-74
2023/03/18 09:50:37;;;;;;;26.03;12.50;;;;;;;;;;6162792;28;20301;-76
2023/03/18 09:53:44;;;;;;;22.27;13.47;;;;;;;;;;6163120;28;20300;-74
2023/03/18 09:56:52;;;;;;;18.07;12.03;;;;;;;;;;6162991;28;20315;-75
2023/03/18 10:00:07;;;;;;;20.87;12.23;;;;;;;;;;6162372;28;20305;-75
2023/03/18 10:03:21;;;;;;;23.00;12.37;;;;;;;;;;6163235;28;20296;-75
2023/03/18 10:06:26;;;;;;;21.80;12.00;;;;;;;;;;6163591;28;20297;-75
2023/03/18 10:09:36;;;;;;;21.37;11.70;;;;;;;;;;6162547;28;20305;-77
2023/03/18 10:12:45;;;;;;;19.97;11.97;;;;;;;;;;6138953;28;20298;-74
2023/03/18 10:15:52;;;;;;;21.60;11.97;;;;;;;;;;6157413;28;20298;-75
2023/03/18 10:19:00;;;;;;;18.87;11.77;;;;;;;;;;6163708;28;20305;-75
2023/03/18 10:22:15;;;;;;;21.63;11.80;;;;;;;;;;6162633;28;20492;-75
2023/03/18 10:25:26;;;;;;;18.30;12.27;;;;;;;;;;6162989;28;20297;-74
2023/03/18 10:28:51;;;;;;;18.73;11.87;;;;;;;;;;6163634;28;20318;-75
2023/03/18 10:32:08;;;;;;;23.43;12.17;;;;;;;;;;6161646;28;20320;-74
2023/03/18 10:35:24;;;;;;;24.43;12.30;;;;;;;;;;6162536;28;20297;-75
2023/03/18 10:38:32;;;;;;;23.73;12.03;;;;;;;;;;6162747;28;20297;-74
2023/03/18 10:41:38;;;;;;;19.97;12.30;;;;;;;;;;6192633;28;20312;-75
2023/03/18 10:44:44;;;;;;;25.13;13.60;;;;;;;;;;6162662;28;20297;-75
2023/03/18 10:47:54;;;;;;;20.23;12.73;;;;;;;;;;6160470;28;20295;-74
2023/03/18 10:51:07;;;;;;;26.77;12.93;;;;;;;;;;6161873;28;20303;-74
2023/03/18 10:54:15;;;;;;;24.70;13.50;;;;;;;;;;6163114;28;20288;-74
2023/03/18 10:57:22;;;;;;;29.30;13.10;;;;;;;;;;6162301;28;20303;-74
2023/03/18 11:00:29;;;;;;;24.50;13.30;;;;;;;;;;6162429;28;20312;-75
2023/03/18 11:03:37;;;;;;;24.47;13.03;;;;;;;;;;6162367;28;20309;-75
2023/03/18 11:06:47;;;;;;;26.00;13.40;;;;;;;;;;6162622;28;20302;-76
2023/03/18 11:09:52;;;;;;;23.53;12.73;;;;;;;;;;6165802;28;20294;-73
2023/03/18 11:13:02;;;;;;;17.33;11.77;;;;;;;;;;6197363;28;20307;-75
2023/03/18 11:16:20;;;;;;;26.90;12.67;;;;;;;;;;6167026;28;20484;-75
2023/03/18 11:19:30;;;;;;;26.17;13.03;;;;;;;;;;6167424;28;20292;-74
2023/03/18 11:22:37;;;;;;;25.23;11.70;;;;;;;;;;6165597;28;20317;-75
2023/03/18 11:25:47;;;;;;;21.87;12.53;;;;;;;;;;6166562;28;20311;-76
2023/03/18 11:28:56;;;;;;;19.80;12.50;;;;;;;;;;6165969;28;20304;-76
2023/03/18 11:32:02;;;;;;;27.37;13.13;;;;;;;;;;6166637;28;20311;-76
2023/03/18 11:35:17;;;;;;;25.17;12.23;;;;;;;;;;6166212;28;20290;-75
2023/03/18 11:38:27;;;;;;;23.50;12.73;;;;;;;;;;6167780;28;20316;-74
2023/03/18 11:41:32;;;;;;;23.77;12.13;;;;;;;;;;6168000;28;20300;-76
2023/03/18 11:44:37;;;;;;;22.37;12.43;;;;;;;;;;6166740;28;20581;-75
2023/03/18 11:47:43;;;;;;;23.73;12.57;;;;;;;;;;6166280;28;20484;-75
2023/03/18 11:51:12;;;;;;;22.33;12.17;;;;;;;;;;6149011;28;20289;-75
2023/03/18 11:54:52;;;;;;;22.67;12.33;;;;;;;;;;6165334;28;20304;-76
2023/03/18 11:58:16;;;;;;;22.13;11.90;;;;;;;;;;6165130;28;20302;-75
2023/03/18 12:01:28;;;;;;;23.93;11.40;;;;;;;;;;6165687;28;20329;-74
2023/03/18 12:05:11;;;;;;;19.73;12.03;;;;;;;;;;6163910;28;20317;-74
2023/03/18 12:08:21;;;;;;;21.00;11.40;;;;;;;;;;6131885;28;20316;-74
2023/03/18 12:11:47;;;;;;;20.30;11.67;;;;;;;;;;6165598;28;20593;-73
2023/03/18 12:14:57;;;;;;;19.67;11.23;;;;;;;;;;6166473;28;20304;-73
2023/03/18 12:18:10;;;;;;;22.83;11.30;;;;;;;;;;6166244;28;20298;-73
2023/03/18 12:21:30;;;;;;;18.03;10.63;;;;;;;;;;6165133;28;20297;-76
2023/03/18 12:25:00;;;;;;;16.73;10.70;;;;;;;;;;6165833;28;20302;-74
2023/03/18 12:28:14;;;;;;;20.50;11.33;;;;;;;;;;6165126;28;20305;-74
2023/03/18 12:31:34;;;;;;;18.37;11.17;;;;;;;;;;6195652;28;20452;-74
2023/03/18 12:34:54;;;;;;;20.77;11.23;;;;;;;;;;6164904;28;20297;-73
2023/03/18 12:38:13;;;;;;;22.93;11.77;;;;;;;;;;6163546;28;20296;-74
2023/03/18 12:41:24;;;;;;;23.37;12.07;;;;;;;;;;6164695;28;20556;-74
2023/03/18 12:44:38;;;;;;;25.17;12.77;;;;;;;;;;6165114;28;20298;-76
2023/03/18 12:47:47;;;;;;;24.97;13.63;;;;;;;;;;6164387;28;20312;-76
2023/03/18 12:50:54;;;;;;;22.83;13.40;;;;;;;;;;6164106;28;20308;-75
2023/03/18 12:54:09;;;;;;;23.40;13.40;;;;;;;;;;6164501;28;20299;-75
2023/03/18 12:57:18;;;;;;;32.27;13.50;;;;;;;;;;6164403;28;20301;-75
2023/03/18 13:00:29;;;;;;;22.37;13.30;;;;;;;;;;6164079;28;20322;-74
2023/03/18 13:03:37;;;;;;;25.50;14.00;;;;;;;;;;6163088;28;20305;-74
2023/03/18 13:06:44;;;;;;;24.97;13.40;;;;;;;;;;6164220;28;20305;-74
2023/03/18 13:09:52;;;;;;;29.53;13.77;;;;;;;;;;6164281;28;20296;-75
2023/03/18 13:12:59;;;;;;;24.83;13.50;;;;;;;;;;6164184;28;20302;-75
2023/03/18 13:16:05;;;;;;;30.07;14.37;;;;;;;;;;6164474;28;20484;-75
2023/03/18 13:19:12;;;;;;;31.77;14.87;;;;;;;;;;6194995;28;20297;-74
2023/03/18 13:22:36;;;;;;;27.50;13.97;;;;;;;;;;6163778;28;20328;-77
2023/03/18 13:25:47;;;;;;;28.57;14.77;;;;;;;;;;6162968;28;20301;-75
2023/03/18 13:29:00;;;;;;;29.60;13.13;;;;;;;;;;6164246;28;20412;-74
2023/03/18 13:32:23;;;;;;;27.27;13.97;;;;;;;;;;6161473;28;20301;-74
2023/03/18 13:35:52;;;;;;;31.73;14.73;;;;;;;;;;6163456;28;20321;-73
2023/03/18 13:39:17;;;;;;;30.70;14.77;;;;;;;;;;6163743;28;20301;-75
2023/03/18 13:42:24;;;;;;;25.77;13.93;;;;;;;;;;6164208;28;20596;-75
2023/03/18 13:45:32;;;;;;;30.00;13.90;;;;;;;;;;6163809;28;20301;-76
2023/03/18 13:48:41;;;;;;;31.07;13.80;;;;;;;;;;6163029;28;20613;-75
2023/03/18 13:51:52;;;;;;;30.43;14.37;;;;;;;;;;6163603;28;20608;-75
2023/03/18 13:55:02;;;;;;;33.40;14.17;;;;;;;;;;6163848;28;20314;-75
2023/03/18 13:58:24;;;;;;;28.57;14.03;;;;;;;;;;6163089;28;20402;-75
2023/03/18 14:01:33;;;;;;;25.27;13.70;;;;;;;;;;6161537;28;20603;-75
2023/03/18 14:04:48;;;;;;;26.33;14.27;;;;;;;;;;6161726;28;20484;-76
2023/03/18 14:07:56;;;;;;;31.03;14.13;;;;;;;;;;6162809;28;20584;-77
2023/03/18 14:11:48;;;;;;;27.03;13.93;;;;;;;;;;6161525;28;20296;-75
2023/03/18 14:15:04;;;;;;;29.00;14.60;;;;;;;;;;6118030;28;20303;-74
2023/03/18 14:18:24;;;;;;;29.63;15.00;;;;;;;;;;6160847;28;20302;-77
2023/03/18 14:21:34;;;;;;;25.90;15.13;;;;;;;;;;6161861;28;20301;-77
2023/03/18 14:24:40;;;;;;;33.13;14.30;;;;;;;;;;6162638;28;20316;-76
2023/03/18 14:27:46;;;;;;;30.33;14.83;;;;;;;;;;6161762;28;20299;-79
2023/03/18 14:31:15;;;;;;;31.97;15.37;;;;;;;;;;6192661;28;20293;-77
2023/03/18 14:34:26;;;;;;;27.73;15.37;;;;;;;;;;6162440;28;20594;-79
2023/03/18 14:37:33;;;;;;;29.83;15.13;;;;;;;;;;6162231;28;20300;-76
2023/03/18 14:40:41;;;;;;;35.40;15.30;;;;;;;;;;6161624;28;20329;-77
2023/03/18 14:43:53;;;;;;;32.50;15.13;;;;;;;;;;6165833;28;20581;-75
2023/03/18 14:47:05;;;;;;;24.33;12.83;;;;;;;;;;6167078;28;20366;-79
2023/03/18 14:50:19;;;;;;;24.20;14.37;;;;;;;;;;6167626;28;20589;-76
2023/03/18 14:53:28;;;;;;;29.77;14.43;;;;;;;;;;6167808;28;20296;-76
2023/03/18 14:56:39;;;;;;;28.70;14.73;;;;;;;;;;6166919;28;20308;-76
2023/03/18 14:59:45;;;;;;;32.77;15.87;;;;;;;;;;6167632;28;20296;-78
2023/03/18 15:02:57;;;;;;;29.80;15.63;;;;;;;;;;6167165;28;20313;-76
2023/03/18 15:06:06;;;;;;;30.47;14.77;;;;;;;;;;6167333;28;20471;-79
2023/03/18 15:09:18;;;;;;;34.53;15.53;;;;;;;;;;6166138;28;20488;-76
2023/03/18 15:12:27;;;;;;;34.07;15.07;;;;;;;;;;6166475;28;20317;-78
2023/03/18 15:15:32;;;;;;;33.13;15.13;;;;;;;;;;6166325;28;20309;-77
2023/03/18 15:18:39;;;;;;;29.93;15.30;;;;;;;;;;6167160;28;20301;-76
2023/03/18 15:21:45;;;;;;;29.13;14.87;;;;;;;;;;6166937;28;20306;-78
2023/03/18 15:25:02;;;;;;;37.53;14.83;;;;;;;;;;6167030;28;20305;-74
2023/03/18 15:28:11;;;;;;;35.20;15.63;;;;;;;;;;6167284;28;20473;-76
2023/03/18 15:31:24;;;;;;;32.83;15.33;;;;;;;;;;6166232;28;20303;-75
2023/03/18 15:34:32;;;;;;;33.87;16.60;;;;;;;;;;6166349;28;20308;-75
2023/03/18 15:37:40;;;;;;;35.50;15.07;;;;;;;;;;6164482;28;20305;-76
2023/03/18 15:40:54;;;;;;;38.33;16.53;;;;;;;;;;6166224;28;20288;-76
2023/03/18 15:44:00;;;;;;;32.57;14.77;;;;;;;;;;6166502;28;20551;-75
2023/03/18 15:47:12;;;;;;;36.00;15.27;;;;;;;;;;6166194;28;20293;-76
2023/03/18 15:50:26;;;;;;;35.70;16.80;;;;;;;;;;6165355;28;20304;-77
2023/03/18 15:53:40;;;;;;;39.80;17.03;;;;;;;;;;6165963;28;20301;-75
2023/03/18 15:56:48;;;;;;;30.60;15.40;;;;;;;;;;6165880;28;20628;-75
2023/03/18 15:59:54;;;;;;;30.97;15.23;;;;;;;;;;6165251;28;20301;-74
2023/03/18 16:02:59;;;;;;;42.70;16.83;;;;;;;;;;6165308;28;20304;-74
2023/03/18 16:06:05;;;;;;;30.43;14.03;;;;;;;;;;6165630;28;20298;-73
2023/03/18 16:09:18;;;;;;;32.17;15.37;;;;;;;;;;6165633;28;20297;-74
2023/03/18 16:12:26;;;;;;;33.07;14.83;;;;;;;;;;6165307;28;20300;-74
2023/03/18 16:15:31;;;;;;;28.90;14.97;;;;;;;;;;6164093;28;20300;-74
2023/03/18 16:18:37;;;;;;;30.87;14.47;;;;;;;;;;6165632;28;20499;-74
2023/03/18 16:21:42;;;;;;;27.43;14.57;;;;;;;;;;6164931;28;20394;-75
2023/03/18 16:24:47;;;;;;;30.30;15.53;;;;;;;;;;6165326;28;20304;-76
2023/03/18 16:27:56;;;;;;;31.50;14.63;;;;;;;;;;6164816;28;20316;-75
2023/03/18 16:31:01;;;;;;;29.27;15.13;;;;;;;;;;6164493;28;20302;-75
2023/03/18 16:34:09;;;;;;;28.97;14.80;;;;;;;;;;6164060;28;20293;-75
2023/03/18 16:37:19;;;;;;;30.47;15.13;;;;;;;;;;6164544;28;20308;-76
2023/03/18 16:40:29;;;;;;;34.93;16.60;;;;;;;;;;6164235;28;20297;-75
2023/03/18 16:43:36;;;;;;;33.63;15.17;;;;;;;;;;6164046;28;20276;-75
2023/03/18 16:46:42;;;;;;;32.07;15.93;;;;;;;;;;6163860;28;20421;-74
2023/03/18 16:49:48;;;;;;;33.03;15.90;;;;;;;;;;6165159;28;20451;-76
2023/03/18 16:52:53;;;;;;;31.37;15.53;;;;;;;;;;6164598;28;20352;-76
2023/03/18 16:56:01;;;;;;;31.87;16.23;;;;;;;;;;6164511;28;20300;-75
2023/03/18 16:59:14;;;;;;;30.03;14.60;;;;;;;;;;6164545;28;20593;-73
2023/03/18 17:02:31;;;;;;;35.30;15.57;;;;;;;;;;6164211;28;20314;-77
2023/03/18 17:05:36;;;;;;;28.63;14.60;;;;;;;;;;6163147;28;20296;-75
2023/03/18 17:08:41;;;;;;;32.30;16.20;;;;;;;;;;6164088;28;20297;-75
2023/03/18 17:11:47;;;;;;;32.13;15.97;;;;;;;;;;6164447;28;20305;-75
2023/03/18 17:14:55;;;;;;;31.67;15.17;;;;;;;;;;6164588;28;20300;-76
2023/03/18 17:18:02;;;;;;;33.17;16.30;;;;;;;;;;6164178;28;20300;-74
2023/03/18 17:21:11;;;;;;;28.70;15.13;;;;;;;;;;6164135;28;20297;-76
2023/03/18 17:24:16;;;;;;;33.43;15.83;;;;;;;;;;6164547;28;20414;-74
2023/03/18 17:27:24;;;;;;;40.43;16.20;;;;;;;;;;6163706;28;20477;-72
2023/03/18 17:30:33;;;;;;;32.93;15.53;;;;;;;;;;6163624;28;20293;-75
2023/03/18 17:33:39;;;;;;;37.50;18.00;;;;;;;;;;6164086;28;20297;-77
2023/03/18 17:36:44;;;;;;;37.20;16.63;;;;;;;;;;6163717;28;20304;-75
2023/03/18 17:39:50;;;;;;;32.77;17.00;;;;;;;;;;6164349;28;20316;-75
2023/03/18 17:42:55;;;;;;;30.37;15.80;;;;;;;;;;6163111;28;20498;-75
2023/03/18 17:46:02;;;;;;;33.97;15.73;;;;;;;;;;6162455;28;20320;-76
2023/03/18 17:49:11;;;;;;;36.40;16.17;;;;;;;;;;6163135;28;20297;-74
2023/03/18 17:52:19;;;;;;;38.40;17.27;;;;;;;;;;6162408;28;20308;-75
2023/03/18 17:55:26;;;;;;;37.80;17.20;;;;;;;;;;6162025;28;20305;-74
2023/03/18 17:58:32;;;;;;;32.87;16.97;;;;;;;;;;6164737;28;20291;-76
2023/03/18 18:01:39;;;;;;;44.20;20.17;;;;;;;;;;6161910;28;20297;-75
2023/03/18 18:04:44;;;;;;;38.10;18.87;;;;;;;;;;6163636;28;20298;-75
2023/03/18 18:07:51;;;;;;;38.37;18.43;;;;;;;;;;6163367;28;20305;-74
2023/03/18 18:11:03;;;;;;;36.70;17.23;;;;;;;;;;6163392;28;20546;-72
2023/03/18 18:14:16;;;;;;;38.50;17.30;;;;;;;;;;6162229;28;20297;-75
2023/03/18 18:17:23;;;;;;;44.50;17.70;;;;;;;;;;6162286;28;20304;-75
2023/03/18 18:20:28;;;;;;;39.13;17.03;;;;;;;;;;6162584;28;20563;-76
2023/03/18 18:23:34;;;;;;;36.37;17.67;;;;;;;;;;6163024;28;20304;-73